Time;durP1;ratioP1;P1;durP2;ratioP2;P2;SDS_P1;SDS_P2;PMS_P1;PMS_P2;Temp;Humidity;BMP_temperature;BMP_pressure;BME280_temperature;BME280_humidity;BME280_pressure;Samples;Min_cycle;Max_cycle;Signal;HPM_P1;HPM_P2
2021/08/24 06:24:36;;;;;;;;;36.50;33.00;;;;;;;;6190369;22;1339889;-75
2021/08/24 06:27:01;;;;;;;;;23.25;23.25;;;;;;;;6301999;22;45177;-76
2021/08/24 06:29:26;;;;;;;;;26.50;25.75;;;;;;;;6302071;22;45447;-77
2021/08/24 06:31:53;;;;;;;;;26.50;23.75;;;;;;;;6301836;22;45291;-76
2021/08/24 06:34:18;;;;;;;;;27.00;24.25;;;;;;;;6301594;22;45302;-76
2021/08/24 06:36:44;;;;;;;;;34.00;28.50;;;;;;;;6302367;22;45294;-76
2021/08/24 06:39:09;;;;;;;;;28.00;24.50;;;;;;;;6303299;22;45201;-76
2021/08/24 06:41:36;;;;;;;;;33.75;29.50;;;;;;;;6302025;22;45764;-77
2021/08/24 06:44:02;;;;;;;;;23.00;20.25;;;;;;;;6302044;22;45312;-76
2021/08/24 06:46:27;;;;;;;;;31.50;29.00;;;;;;;;6302644;22;45367;-77
2021/08/24 06:48:52;;;;;;;;;26.25;26.00;;;;;;;;6302294;22;45402;-77
2021/08/24 06:51:17;;;;;;;;;28.25;24.50;;;;;;;;6302553;22;46107;-77
2021/08/24 06:53:43;;;;;;;;;23.00;23.00;;;;;;;;6302409;22;45311;-76
2021/08/24 06:56:12;;;;;;;;;27.25;26.25;;;;;;;;6301395;22;45311;-78
2021/08/24 06:58:40;;;;;;;;;22.50;20.75;;;;;;;;6301190;22;45275;-76
2021/08/24 07:01:06;;;;;;;;;25.25;24.25;;;;;;;;6301679;22;45416;-77
2021/08/24 07:03:31;;;;;;;;;34.50;29.50;;;;;;;;6274477;22;46154;-76
2021/08/24 07:05:56;;;;;;;;;29.50;24.75;;;;;;;;6301461;22;45300;-76
2021/08/24 07:08:21;;;;;;;;;25.50;24.00;;;;;;;;6301413;22;45575;-77
2021/08/24 07:10:48;;;;;;;;;28.75;28.50;;;;;;;;6302990;22;45268;-76
2021/08/24 07:13:13;;;;;;;;;30.75;24.75;;;;;;;;6301806;22;45285;-77
2021/08/24 07:15:39;;;;;;;;;30.00;28.75;;;;;;;;6302634;22;45611;-76
2021/08/24 07:18:05;;;;;;;;;26.00;24.25;;;;;;;;6303166;22;45434;-76
2021/08/24 07:20:30;;;;;;;;;25.75;25.00;;;;;;;;6301935;22;45946;-76
2021/08/24 07:22:56;;;;;;;;;23.75;22.50;;;;;;;;6302431;22;45248;-77
2021/08/24 07:25:22;;;;;;;;;28.25;27.50;;;;;;;;6303175;22;45333;-77
2021/08/24 07:27:48;;;;;;;;;16.25;15.25;;;;;;;;6301386;22;45541;-77
2021/08/24 07:30:14;;;;;;;;;30.00;28.75;;;;;;;;6301025;22;46613;-76
2021/08/24 07:32:40;;;;;;;;;26.75;25.25;;;;;;;;6301879;22;45285;-77
2021/08/24 07:35:05;;;;;;;;;26.75;23.25;;;;;;;;6301911;22;45338;-77
2021/08/24 07:37:31;;;;;;;;;23.00;21.75;;;;;;;;6301887;22;45301;-77
2021/08/24 07:39:56;;;;;;;;;25.00;22.25;;;;;;;;6302240;22;46164;-77
2021/08/24 07:42:21;;;;;;;;;22.75;22.00;;;;;;;;6302792;22;45264;-77
2021/08/24 07:44:47;;;;;;;;;27.50;26.00;;;;;;;;6301620;22;45610;-77
2021/08/24 07:47:12;;;;;;;;;25.25;23.00;;;;;;;;6302833;22;45265;-77
2021/08/24 07:49:37;;;;;;;;;26.00;24.75;;;;;;;;6302642;22;46198;-77
2021/08/24 07:52:04;;;;;;;;;24.75;22.25;;;;;;;;6301548;22;45311;-77
2021/08/24 07:54:29;;;;;;;;;27.75;26.50;;;;;;;;6275677;22;45368;-76
2021/08/24 07:56:54;;;;;;;;;22.50;21.25;;;;;;;;6302368;22;45355;-77
2021/08/24 07:59:19;;;;;;;;;22.00;19.50;;;;;;;;6301610;22;45401;-77
2021/08/24 08:01:45;;;;;;;;;24.25;22.75;;;;;;;;6300966;22;45292;-77
2021/08/24 08:04:10;;;;;;;;;22.25;22.00;;;;;;;;6301629;22;45331;-77
2021/08/24 08:06:36;;;;;;;;;17.25;17.25;;;;;;;;6301741;22;45343;-77
2021/08/24 08:09:02;;;;;;;;;20.50;18.50;;;;;;;;6302581;22;46159;-77
2021/08/24 08:11:30;;;;;;;;;21.50;21.50;;;;;;;;6302220;22;45245;-77
2021/08/24 08:13:55;;;;;;;;;22.25;19.00;;;;;;;;6301123;22;45328;-77
2021/08/24 08:16:20;;;;;;;;;20.75;19.50;;;;;;;;6302531;22;45344;-77
2021/08/24 08:18:45;;;;;;;;;21.00;18.00;;;;;;;;6302159;22;45292;-77
2021/08/24 08:21:10;;;;;;;;;19.25;18.00;;;;;;;;6300393;22;45254;-77
2021/08/24 08:23:36;;;;;;;;;19.25;18.25;;;;;;;;6302170;22;45293;-77
2021/08/24 08:26:01;;;;;;;;;19.00;19.00;;;;;;;;6301876;22;45443;-77
2021/08/24 08:28:27;;;;;;;;;16.75;16.50;;;;;;;;6301732;22;45312;-77
2021/08/24 08:30:52;;;;;;;;;19.75;16.50;;;;;;;;6302163;22;45341;-77
2021/08/24 08:33:17;;;;;;;;;17.75;17.75;;;;;;;;6303333;22;45298;-77
2021/08/24 08:35:42;;;;;;;;;12.25;12.25;;;;;;;;6301801;22;45331;-77
2021/08/24 08:38:08;;;;;;;;;14.00;12.75;;;;;;;;6301775;22;46014;-77
2021/08/24 08:40:49;;;;;;;;;17.00;15.50;;;;;;;;6301999;22;45704;-76
2021/08/24 08:43:37;;;;;;;;;18.50;16.00;;;;;;;;6302190;22;45195;-76
2021/08/24 08:46:11;;;;;;;;;14.25;14.25;;;;;;;;6302236;22;45307;-77
2021/08/24 08:48:40;;;;;;;;;15.25;14.00;;;;;;;;6302035;22;45928;-77
2021/08/24 08:51:20;;;;;;;;;13.25;13.00;;;;;;;;6301281;22;45376;-77
2021/08/24 08:54:04;;;;;;;;;14.50;14.50;;;;;;;;6302064;22;45322;-76
2021/08/24 08:56:32;;;;;;;;;11.33;10.67;;;;;;;;6302110;22;45344;-77
2021/08/24 08:59:04;;;;;;;;;14.00;12.75;;;;;;;;6301305;22;46205;-77
2021/08/24 09:01:34;;;;;;;;;11.25;10.00;;;;;;;;6302192;22;45241;-75
2021/08/24 09:04:05;;;;;;;;;12.00;9.75;;;;;;;;6302133;22;45323;-77
2021/08/24 09:06:30;;;;;;;;;10.00;10.00;;;;;;;;6302683;22;45408;-77
2021/08/24 09:08:57;;;;;;;;;10.75;10.75;;;;;;;;6302131;22;46231;-76
2021/08/24 09:11:27;;;;;;;;;6.33;6.33;;;;;;;;6301820;22;45304;-76
2021/08/24 09:13:56;;;;;;;;;12.00;11.33;;;;;;;;6302256;22;45387;-76
2021/08/24 09:16:31;;;;;;;;;9.00;9.00;;;;;;;;6302674;22;45715;-77
2021/08/24 09:18:58;;;;;;;;;13.00;12.00;;;;;;;;6301073;22;47189;-74
2021/08/24 09:21:24;;;;;;;;;8.00;7.00;;;;;;;;6301781;22;45355;-76
2021/08/24 09:23:51;;;;;;;;;11.75;11.25;;;;;;;;6301763;22;45330;-76
2021/08/24 09:26:16;;;;;;;;;9.33;7.67;;;;;;;;6299567;22;45818;-70
2021/08/24 09:28:41;;;;;;;;;12.00;9.67;;;;;;;;6296496;22;45351;-71
2021/08/24 09:31:11;;;;;;;;;12.25;11.25;;;;;;;;6300540;22;45338;-72
2021/08/24 09:33:36;;;;;;;;;12.00;11.25;;;;;;;;6271610;22;45333;-71
2021/08/24 09:36:01;;;;;;;;;12.00;10.00;;;;;;;;6299320;22;45451;-73
2021/08/24 09:38:31;;;;;;;;;10.00;9.00;;;;;;;;6300504;22;45321;-71
2021/08/24 09:41:15;;;;;;;;;9.00;9.00;;;;;;;;6302233;22;45282;-71
2021/08/24 09:43:41;;;;;;;;;7.00;7.00;;;;;;;;6298069;22;45374;-71
2021/08/24 09:46:15;;;;;;;;;6.33;6.33;;;;;;;;6302166;22;45174;-71
2021/08/24 09:48:52;;;;;;;;;5.67;5.67;;;;;;;;6301050;22;46048;-71
2021/08/24 09:51:26;;;;;;;;;10.33;7.00;;;;;;;;6301310;22;45295;-72
2021/08/24 09:53:58;;;;;;;;;7.00;6.00;;;;;;;;6302107;22;45266;-72
2021/08/24 09:56:26;;;;;;;;;5.00;5.00;;;;;;;;6301396;22;45364;-72
2021/08/24 09:58:51;;;;;;;;;10.33;7.00;;;;;;;;6301921;22;46321;-71
2021/08/24 10:01:17;;;;;;;;;6.00;6.00;;;;;;;;6302149;22;45246;-72
2021/08/24 10:03:44;;;;;;;;;5.33;5.00;;;;;;;;6302020;22;45198;-69
2021/08/24 10:06:26;;;;;;;;;6.33;6.33;;;;;;;;6299404;22;45373;-70
2021/08/24 10:08:55;;;;;;;;;6.67;6.67;;;;;;;;6299560;22;46263;-70
2021/08/24 10:11:30;;;;;;;;;9.00;7.00;;;;;;;;6300671;22;45321;-71
2021/08/24 10:14:08;;;;;;;;;4.00;4.00;;;;;;;;6300197;22;45301;-75
2021/08/24 10:16:34;;;;;;;;;9.67;8.33;;;;;;;;6301158;22;45723;-75
2021/08/24 10:19:05;;;;;;;;;8.67;7.67;;;;;;;;6300122;22;45932;-75
2021/08/24 10:21:56;;;;;;;;;6.67;6.67;;;;;;;;6300555;22;45468;-73
2021/08/24 10:24:29;;;;;;;;;7.33;6.33;;;;;;;;6293939;22;45200;-73
2021/08/24 10:26:57;;;;;;;;;5.00;5.00;;;;;;;;6301003;22;45400;-74
2021/08/24 10:29:28;;;;;;;;;3.00;3.00;;;;;;;;6272148;22;47477;-74
2021/08/24 10:32:03;;;;;;;;;4.33;4.33;;;;;;;;6299297;22;45369;-71
2021/08/24 10:34:38;;;;;;;;;6.33;5.33;;;;;;;;6300607;22;45352;-71
2021/08/24 10:37:15;;;;;;;;;6.00;4.33;;;;;;;;6300589;22;45297;-71
2021/08/24 10:39:40;;;;;;;;;4.33;4.33;;;;;;;;6301461;22;46339;-71
2021/08/24 10:42:07;;;;;;;;;6.00;6.00;;;;;;;;6301004;22;45285;-71
2021/08/24 10:44:50;;;;;;;;;5.00;5.00;;;;;;;;6301027;22;45243;-71
2021/08/24 10:47:22;;;;;;;;;7.00;6.00;;;;;;;;6299630;22;45407;-71
2021/08/24 10:49:47;;;;;;;;;6.67;4.67;;;;;;;;6300716;22;46069;-72
2021/08/24 10:52:20;;;;;;;;;7.00;4.33;;;;;;;;6300694;22;45283;-71
2021/08/24 10:54:57;;;;;;;;;6.00;6.00;;;;;;;;6300959;22;45271;-71
2021/08/24 10:57:25;;;;;;;;;6.00;6.00;;;;;;;;6300303;22;45379;-70
2021/08/24 11:00:12;;;;;;;;;5.67;4.33;;;;;;;;6300194;22;46129;-71
2021/08/24 11:02:58;;;;;;;;;3.00;2.00;;;;;;;;6300889;22;45232;-70
2021/08/24 11:05:29;;;;;;;;;10.00;8.00;;;;;;;;6300924;22;45387;-70
2021/08/24 11:08:00;;;;;;;;;4.00;3.00;;;;;;;;6301727;22;45432;-72
2021/08/24 11:10:33;;;;;;;;;3.67;3.67;;;;;;;;6301608;22;46766;-71
2021/08/24 11:12:58;;;;;;;;;5.33;5.33;;;;;;;;6301359;22;45585;-71
2021/08/24 11:15:35;;;;;;;;;6.67;6.00;;;;;;;;6274304;22;45248;-71
2021/08/24 11:18:19;;;;;;;;;4.00;4.00;;;;;;;;6302445;22;45337;-71
2021/08/24 11:21:03;;;;;;;;;4.00;4.00;;;;;;;;6302168;22;46256;-71
2021/08/24 11:23:47;;;;;;;;;6.00;6.00;;;;;;;;6301726;22;45228;-71
2021/08/24 11:26:15;;;;;;;;;6.33;6.33;;;;;;;;6301745;22;45198;-69
2021/08/24 11:28:48;;;;;;;;;9.67;7.00;;;;;;;;6302357;22;45355;-71
2021/08/24 11:31:24;;;;;;;;;3.00;3.00;;;;;;;;6301989;22;45602;-70
2021/08/24 11:34:01;;;;;;;;;6.33;5.00;;;;;;;;6301253;22;45299;-70
2021/08/24 11:36:32;;;;;;;;;5.33;3.67;;;;;;;;6301782;22;45383;-70
2021/08/24 11:39:05;;;;;;;;;4.33;4.00;;;;;;;;6302158;22;45225;-70
2021/08/24 11:41:30;;;;;;;;;4.33;4.33;;;;;;;;6273804;22;45505;-71
2021/08/24 11:44:13;;;;;;;;;6.67;6.00;;;;;;;;6301434;22;45337;-69
2021/08/24 11:46:42;;;;;;;;;3.00;3.00;;;;;;;;6301519;22;45243;-69
2021/08/24 11:49:10;;;;;;;;;4.00;3.67;;;;;;;;6301462;22;45330;-68
2021/08/24 11:51:38;;;;;;;;;5.33;4.00;;;;;;;;6302243;22;45706;-73
2021/08/24 11:54:08;;;;;;;;;3.67;3.33;;;;;;;;6302440;22;45349;-72
2021/08/24 11:56:52;;;;;;;;;3.67;3.67;;;;;;;;6302721;22;45372;-71
2021/08/24 11:59:23;;;;;;;;;3.33;3.33;;;;;;;;6302543;22;45416;-72
2021/08/24 12:01:49;;;;;;;;;4.33;4.00;;;;;;;;6302242;22;46053;-72
2021/08/24 12:04:18;;;;;;;;;4.00;4.00;;;;;;;;6295996;22;45351;-71
2021/08/24 12:06:55;;;;;;;;;3.33;3.33;;;;;;;;6302427;22;45315;-71
2021/08/24 12:09:41;;;;;;;;;4.00;4.00;;;;;;;;6302461;22;45415;-72
2021/08/24 12:12:08;;;;;;;;;2.00;2.00;;;;;;;;6301383;22;46856;-72
2021/08/24 12:14:38;;;;;;;;;5.00;2.67;;;;;;;;6301673;22;45241;-72
2021/08/24 12:17:13;;;;;;;;;5.00;3.33;;;;;;;;6274318;22;45503;-72
2021/08/24 12:19:38;;;;;;;;;3.33;3.33;;;;;;;;6302618;22;45458;-73
2021/08/24 12:22:06;;;;;;;;;4.33;3.67;;;;;;;;6302114;22;45974;-73
2021/08/24 12:24:33;;;;;;;;;6.67;4.33;;;;;;;;6302142;22;45862;-72
2021/08/24 12:27:08;;;;;;;;;5.00;5.00;;;;;;;;6302791;22;45241;-72
2021/08/24 12:29:36;;;;;;;;;5.67;4.00;;;;;;;;6301864;22;45369;-72
2021/08/24 12:32:04;;;;;;;;;3.33;3.33;;;;;;;;6302550;22;46142;-72
2021/08/24 12:34:32;;;;;;;;;2.00;2.00;;;;;;;;6302479;22;45279;-71
2021/08/24 12:36:58;;;;;;;;;2.67;2.67;;;;;;;;6301847;22;45242;-72
2021/08/24 12:39:58;;;;;;;;;4.67;4.00;;;;;;;;6302001;22;45433;-72
2021/08/24 12:43:02;;;;;;;;;2.67;2.67;;;;;;;;6176461;23;46257;-72
2021/08/24 12:45:28;;;;;;;;;2.00;1.00;;;;;;;;6175983;23;45324;-72
2021/08/24 12:48:14;;;;;;;;;4.00;3.00;;;;;;;;6177169;23;45315;-72
2021/08/24 12:50:39;;;;;;;;;5.00;5.00;;;;;;;;6176347;23;45262;-72
2021/08/24 12:53:23;;;;;;;;;4.33;3.00;;;;;;;;6176276;23;47665;-72
2021/08/24 12:55:48;;;;;;;;;2.67;1.67;;;;;;;;6176680;23;45294;-72
2021/08/24 12:58:24;;;;;;;;;4.67;4.67;;;;;;;;6176470;23;45530;-72
2021/08/24 13:01:08;;;;;;;;;7.00;4.67;;;;;;;;6176980;23;45472;-72
2021/08/24 13:03:36;;;;;;;;;3.33;3.00;;;;;;;;6176947;23;46225;-73
2021/08/24 13:06:19;;;;;;;;;5.00;4.00;;;;;;;;6176529;23;45423;-72
2021/08/24 13:08:45;;;;;;;;;10.00;9.00;;;;;;;;6177023;23;45222;-73
2021/08/24 13:11:23;;;;;;;;;3.33;3.33;;;;;;;;6176838;23;45390;-73
2021/08/24 13:13:56;;;;;;;;;4.67;3.00;;;;;;;;6176267;23;47364;-73
2021/08/24 13:16:23;;;;;;;;;4.00;4.00;;;;;;;;6235459;22;45381;-74
2021/08/24 13:18:50;;;;;;;;;5.67;4.00;;;;;;;;6302191;22;45372;-74
2021/08/24 13:21:31;;;;;;;;;4.00;4.00;;;;;;;;6301715;22;45278;-74
2021/08/24 13:24:04;;;;;;;;;5.33;4.33;;;;;;;;6300528;22;46233;-72
2021/08/24 13:26:33;;;;;;;;;6.00;5.33;;;;;;;;6302116;22;45214;-74
2021/08/24 13:28:58;;;;;;;;;4.00;4.00;;;;;;;;6301560;22;45362;-72
2021/08/24 13:32:03;;;;;;;;;1.67;1.67;;;;;;;;6301660;22;45265;-73
2021/08/24 13:34:33;;;;;;;;;1.00;1.00;;;;;;;;6175606;23;46011;-72
2021/08/24 13:36:58;;;;;;;;;4.00;2.33;;;;;;;;6175712;23;45200;-74
2021/08/24 13:39:23;;;;;;;;;2.67;2.67;;;;;;;;6151764;23;45396;-73
2021/08/24 13:41:53;;;;;;;;;3.00;3.00;;;;;;;;6176488;23;45446;-73
2021/08/24 13:44:21;;;;;;;;;5.00;4.00;;;;;;;;6176542;23;47133;-73
2021/08/24 13:46:55;;;;;;;;;4.67;3.67;;;;;;;;6175973;23;45282;-72
2021/08/24 13:49:20;;;;;;;;;3.00;3.00;;;;;;;;6176409;23;45259;-74
2021/08/24 13:51:46;;;;;;;;;3.00;3.00;;;;;;;;6177320;23;45299;-74
2021/08/24 13:54:12;;;;;;;;;5.67;3.67;;;;;;;;6176224;23;45948;-72
2021/08/24 13:56:38;;;;;;;;;5.00;4.33;;;;;;;;6175398;23;45355;-72
2021/08/24 13:59:04;;;;;;;;;2.67;2.67;;;;;;;;6176934;23;45286;-72
2021/08/24 14:01:38;;;;;;;;;3.67;3.00;;;;;;;;6175523;23;45239;-72
2021/08/24 14:04:36;;;;;;;;;3.33;3.33;;;;;;;;6152639;22;48817;-72
2021/08/24 14:07:06;;;;;;;;;3.00;2.00;;;;;;;;6175843;23;45428;-73
2021/08/24 14:09:31;;;;;;;;;4.00;4.00;;;;;;;;6176128;23;45307;-72
2021/08/24 14:12:02;;;;;;;;;4.33;3.33;;;;;;;;6176967;23;45187;-72
2021/08/24 14:14:30;;;;;;;;;3.00;3.00;;;;;;;;6175815;23;45610;-72
2021/08/24 14:16:57;;;;;;;;;5.67;4.00;;;;;;;;6176134;23;45357;-72
2021/08/24 14:19:29;;;;;;;;;4.33;3.33;;;;;;;;6176246;23;45349;-71
2021/08/24 14:22:04;;;;;;;;;3.00;3.00;;;;;;;;6176466;23;45434;-71
2021/08/24 14:24:31;;;;;;;;;0.00;0.00;;;;;;;;6175945;23;47146;-71
2021/08/24 14:26:56;;;;;;;;;2.33;2.33;;;;;;;;6175890;23;45299;-74
2021/08/24 14:29:23;;;;;;;;;3.33;3.33;;;;;;;;6176112;23;45322;-74
2021/08/24 14:31:50;;;;;;;;;5.67;4.33;;;;;;;;6175545;23;45434;-74
2021/08/24 14:34:15;;;;;;;;;3.00;3.00;;;;;;;;6175615;23;45496;-74
2021/08/24 14:36:41;;;;;;;;;2.33;2.33;;;;;;;;6177219;23;45337;-74
2021/08/24 14:39:07;;;;;;;;;2.67;2.67;;;;;;;;6176166;23;45320;-73
2021/08/24 14:41:52;;;;;;;;;1.33;1.33;;;;;;;;6184549;22;45294;-72
2021/08/24 14:44:22;;;;;;;;;3.00;3.00;;;;;;;;6302487;22;47094;-74
2021/08/24 14:46:49;;;;;;;;;3.00;2.33;;;;;;;;6302508;22;45198;-73
2021/08/24 14:49:16;;;;;;;;;2.00;2.00;;;;;;;;6302632;22;45186;-75
2021/08/24 14:51:43;;;;;;;;;3.00;3.00;;;;;;;;6299677;22;45412;-73
2021/08/24 14:54:08;;;;;;;;;3.00;3.00;;;;;;;;6301824;22;46275;-72
2021/08/24 14:56:35;;;;;;;;;1.67;1.67;;;;;;;;6302099;22;45236;-73
2021/08/24 14:59:08;;;;;;;;;1.67;1.67;;;;;;;;6303646;22;45280;-73
2021/08/24 15:01:33;;;;;;;;;1.67;1.67;;;;;;;;6303365;22;45439;-73
2021/08/24 15:04:02;;;;;;;;;2.33;1.33;;;;;;;;6302381;22;46176;-73
2021/08/24 15:06:35;;;;;;;;;2.67;2.67;;;;;;;;6302410;22;45251;-73
2021/08/24 15:09:20;;;;;;;;;4.00;3.00;;;;;;;;6302578;22;45251;-73
2021/08/24 15:11:46;;;;;;;;;3.67;3.67;;;;;;;;6302804;22;45295;-74
2021/08/24 15:14:16;;;;;;;;;4.67;2.00;;;;;;;;6302108;22;46028;-73
2021/08/24 15:16:45;;;;;;;;;3.33;2.00;;;;;;;;6302527;22;45342;-71
2021/08/24 15:19:30;;;;;;;;;3.67;3.67;;;;;;;;6302624;22;45294;-74
2021/08/24 15:21:56;;;;;;;;;2.00;2.00;;;;;;;;6301141;22;45295;-74
2021/08/24 15:24:23;;;;;;;;;2.00;2.00;;;;;;;;6301393;22;46105;-74
2021/08/24 15:26:53;;;;;;;;;3.33;1.67;;;;;;;;6302570;22;45568;-74
2021/08/24 15:29:18;;;;;;;;;1.33;1.33;;;;;;;;6302213;22;45234;-73
2021/08/24 15:31:54;;;;;;;;;1.33;1.00;;;;;;;;6302574;22;45280;-73
2021/08/24 15:34:20;;;;;;;;;3.33;3.33;;;;;;;;6274067;22;48235;-73
2021/08/24 15:36:45;;;;;;;;;3.33;2.33;;;;;;;;6302459;22;45352;-73
2021/08/24 15:39:10;;;;;;;;;3.67;3.67;;;;;;;;6303468;22;45234;-72
2021/08/24 15:41:36;;;;;;;;;2.33;2.33;;;;;;;;6302051;22;45407;-73
2021/08/24 15:44:01;;;;;;;;;1.67;1.67;;;;;;;;6301802;22;46881;-73
2021/08/24 15:46:28;;;;;;;;;3.00;3.00;;;;;;;;6300510;22;45183;-73
2021/08/24 15:48:53;;;;;;;;;2.33;2.33;;;;;;;;6302167;22;45298;-73
2021/08/24 15:51:18;;;;;;;;;4.33;4.33;;;;;;;;6301775;22;45849;-74
2021/08/24 15:53:44;;;;;;;;;2.67;2.33;;;;;;;;6302758;22;45413;-73
2021/08/24 15:56:09;;;;;;;;;4.33;3.00;;;;;;;;6302788;22;45189;-73
2021/08/24 15:58:34;;;;;;;;;3.33;2.00;;;;;;;;6302435;22;45245;-74
2021/08/24 16:01:00;;;;;;;;;4.00;4.00;;;;;;;;6302759;22;45479;-74
2021/08/24 16:03:25;;;;;;;;;5.33;1.33;;;;;;;;6302170;22;45142;-72
2021/08/24 16:05:50;;;;;;;;;3.00;3.00;;;;;;;;6301448;22;45375;-73
2021/08/24 16:08:15;;;;;;;;;2.33;1.33;;;;;;;;6302429;22;45560;-73
2021/08/24 16:10:43;;;;;;;;;2.00;2.00;;;;;;;;6303181;22;45346;-73
2021/08/24 16:13:09;;;;;;;;;2.33;2.33;;;;;;;;6302329;22;46667;-73
2021/08/24 16:15:35;;;;;;;;;3.00;2.00;;;;;;;;6302277;22;45276;-73
2021/08/24 16:18:01;;;;;;;;;1.00;1.00;;;;;;;;6301505;22;45272;-72
2021/08/24 16:20:26;;;;;;;;;2.67;2.67;;;;;;;;6301385;22;45449;-73
2021/08/24 16:22:52;;;;;;;;;3.33;1.67;;;;;;;;6302270;22;46159;-72
2021/08/24 16:25:22;;;;;;;;;2.67;2.00;;;;;;;;6302892;22;45287;-72
2021/08/24 16:27:47;;;;;;;;;3.33;3.33;;;;;;;;6301213;22;45336;-72
2021/08/24 16:30:15;;;;;;;;;4.00;3.33;;;;;;;;6300825;22;45379;-73
2021/08/24 16:32:41;;;;;;;;;4.00;4.00;;;;;;;;6301379;22;47210;-73
2021/08/24 16:35:07;;;;;;;;;3.67;3.67;;;;;;;;6302081;22;45217;-73
2021/08/24 16:37:33;;;;;;;;;2.33;2.33;;;;;;;;6301764;22;45206;-72
2021/08/24 16:39:59;;;;;;;;;2.67;2.67;;;;;;;;6301921;22;45393;-73
2021/08/24 16:42:24;;;;;;;;;3.00;3.00;;;;;;;;6302172;22;46165;-70
2021/08/24 16:44:50;;;;;;;;;3.00;3.00;;;;;;;;6301848;22;45233;-69
2021/08/24 16:47:15;;;;;;;;;4.00;4.00;;;;;;;;6301946;22;45270;-70
2021/08/24 16:49:40;;;;;;;;;3.00;3.00;;;;;;;;6301997;22;45371;-70
2021/08/24 16:52:06;;;;;;;;;2.00;2.00;;;;;;;;6302028;22;45215;-69
2021/08/24 16:54:32;;;;;;;;;4.33;4.33;;;;;;;;6301885;22;45331;-69
2021/08/24 16:56:57;;;;;;;;;0.67;0.33;;;;;;;;6301660;22;45354;-69
2021/08/24 16:59:22;;;;;;;;;4.00;4.00;;;;;;;;6268069;22;45316;-69
2021/08/24 17:01:47;;;;;;;;;3.33;3.33;;;;;;;;6301822;22;46986;-68
2021/08/24 17:04:12;;;;;;;;;3.00;3.00;;;;;;;;6301171;22;45301;-68
2021/08/24 17:06:38;;;;;;;;;5.33;4.00;;;;;;;;6302614;22;45268;-69
2021/08/24 17:09:03;;;;;;;;;6.67;6.00;;;;;;;;6301277;22;45400;-69
2021/08/24 17:11:28;;;;;;;;;3.33;3.33;;;;;;;;6300654;22;47274;-70
2021/08/24 17:13:54;;;;;;;;;6.00;4.00;;;;;;;;6301530;22;45203;-69
2021/08/24 17:16:19;;;;;;;;;3.00;3.00;;;;;;;;6302154;22;45324;-69
2021/08/24 17:18:44;;;;;;;;;5.00;4.00;;;;;;;;6301648;22;45197;-70
2021/08/24 17:21:10;;;;;;;;;6.00;5.67;;;;;;;;6301948;22;45843;-70
2021/08/24 17:23:35;;;;;;;;;7.33;5.33;;;;;;;;6301353;22;45382;-69
2021/08/24 17:26:03;;;;;;;;;6.00;6.00;;;;;;;;6300406;22;45264;-69
2021/08/24 17:28:30;;;;;;;;;6.67;5.67;;;;;;;;6301316;22;45216;-69
2021/08/24 17:30:56;;;;;;;;;5.00;5.00;;;;;;;;6273395;22;47178;-72
2021/08/24 17:33:22;;;;;;;;;5.00;5.00;;;;;;;;6301288;22;45396;-69
2021/08/24 17:35:47;;;;;;;;;4.25;4.25;;;;;;;;6302389;22;45281;-69
2021/08/24 17:38:12;;;;;;;;;4.00;4.00;;;;;;;;6302484;22;45321;-69
2021/08/24 17:40:37;;;;;;;;;8.75;6.75;;;;;;;;6302272;22;46091;-68
2021/08/24 17:43:04;;;;;;;;;5.00;4.00;;;;;;;;6301657;22;45272;-68
2021/08/24 17:45:32;;;;;;;;;5.00;5.00;;;;;;;;6302107;22;45384;-68
2021/08/24 17:48:18;;;;;;;;;6.00;6.00;;;;;;;;6301347;22;45500;-69
2021/08/24 17:50:45;;;;;;;;;6.75;5.50;;;;;;;;6301464;22;45301;-68
2021/08/24 17:53:12;;;;;;;;;5.75;5.75;;;;;;;;6301920;22;45753;-67
2021/08/24 17:55:38;;;;;;;;;6.25;6.25;;;;;;;;6301916;22;45340;-69
2021/08/24 17:58:03;;;;;;;;;7.25;6.50;;;;;;;;6302057;22;45312;-70
2021/08/24 18:00:28;;;;;;;;;5.75;5.75;;;;;;;;6302151;22;46162;-69
2021/08/24 18:02:53;;;;;;;;;6.75;5.25;;;;;;;;6301591;22;45262;-69
2021/08/24 18:05:30;;;;;;;;;3.75;3.75;;;;;;;;6302235;22;45662;-70
2021/08/24 18:07:55;;;;;;;;;8.50;6.25;;;;;;;;6302163;22;45407;-69
2021/08/24 18:10:20;;;;;;;;;6.00;6.00;;;;;;;;6274070;22;46949;-70
2021/08/24 18:12:46;;;;;;;;;8.25;7.00;;;;;;;;6303518;22;45348;-69
2021/08/24 18:15:12;;;;;;;;;5.25;5.25;;;;;;;;6303346;22;45194;-70
2021/08/24 18:17:37;;;;;;;;;8.00;8.00;;;;;;;;6303228;22;45320;-69
2021/08/24 18:20:03;;;;;;;;;8.00;7.00;;;;;;;;6302790;22;45239;-69
2021/08/24 18:22:28;;;;;;;;;9.25;7.00;;;;;;;;6302628;22;45289;-68
2021/08/24 18:24:53;;;;;;;;;7.00;7.00;;;;;;;;6304065;22;45190;-69
2021/08/24 18:27:19;;;;;;;;;8.00;8.00;;;;;;;;6303203;22;45241;-69
2021/08/24 18:29:46;;;;;;;;;7.50;6.50;;;;;;;;6303085;22;46065;-69
2021/08/24 18:32:11;;;;;;;;;8.50;7.00;;;;;;;;6302476;22;45287;-68
2021/08/24 18:34:37;;;;;;;;;9.00;6.75;;;;;;;;6303729;22;45297;-68
2021/08/24 18:37:02;;;;;;;;;6.50;6.50;;;;;;;;6303619;22;45280;-69
2021/08/24 18:39:27;;;;;;;;;9.25;9.25;;;;;;;;6303058;22;45884;-72
2021/08/24 18:41:53;;;;;;;;;8.00;7.00;;;;;;;;6275122;22;45577;-71
2021/08/24 18:44:18;;;;;;;;;7.50;7.00;;;;;;;;6302202;22;45331;-71
2021/08/24 18:46:44;;;;;;;;;10.00;10.00;;;;;;;;6302323;22;45273;-71
2021/08/24 18:49:09;;;;;;;;;9.25;9.25;;;;;;;;6302219;22;45981;-70
2021/08/24 18:51:37;;;;;;;;;6.25;6.25;;;;;;;;6303187;22;45294;-70
2021/08/24 18:54:03;;;;;;;;;5.75;5.00;;;;;;;;6303336;22;45243;-70
2021/08/24 18:56:30;;;;;;;;;8.50;8.50;;;;;;;;6303290;22;45354;-69
2021/08/24 18:58:55;;;;;;;;;8.25;8.25;;;;;;;;6302420;22;46182;-69
2021/08/24 19:01:31;;;;;;;;;14.25;12.00;;;;;;;;6303175;22;45237;-69
2021/08/24 19:03:56;;;;;;;;;13.00;12.00;;;;;;;;6303657;22;45295;-70
2021/08/24 19:06:22;;;;;;;;;11.00;9.75;;;;;;;;6303601;22;45407;-69
2021/08/24 19:08:48;;;;;;;;;8.00;8.00;;;;;;;;6303122;22;45853;-70
2021/08/24 19:11:15;;;;;;;;;7.00;6.00;;;;;;;;6302968;22;45451;-69
2021/08/24 19:13:40;;;;;;;;;9.25;8.50;;;;;;;;6302137;22;45245;-70
2021/08/24 19:16:05;;;;;;;;;8.00;8.00;;;;;;;;6302818;22;45427;-70
2021/08/24 19:18:32;;;;;;;;;8.75;8.75;;;;;;;;6303138;22;45968;-72
2021/08/24 19:20:59;;;;;;;;;10.50;10.50;;;;;;;;6303446;22;45411;-75
2021/08/24 19:23:26;;;;;;;;;11.25;10.50;;;;;;;;6273680;22;45136;-73
2021/08/24 19:25:53;;;;;;;;;13.75;13.00;;;;;;;;6274879;22;45329;-75
2021/08/24 19:28:18;;;;;;;;;11.25;11.25;;;;;;;;6303033;22;45942;-75
2021/08/24 19:30:44;;;;;;;;;10.25;9.50;;;;;;;;6303729;22;45264;-73
2021/08/24 19:33:09;;;;;;;;;28.50;26.50;;;;;;;;6303517;22;45225;-72
2021/08/24 19:35:35;;;;;;;;;10.00;8.50;;;;;;;;6275870;22;45448;-75
2021/08/24 19:38:01;;;;;;;;;11.75;10.50;;;;;;;;6303141;22;46015;-74
2021/08/24 19:40:27;;;;;;;;;11.50;10.50;;;;;;;;6302635;22;45217;-72
2021/08/24 19:42:53;;;;;;;;;11.50;10.50;;;;;;;;6302628;22;45200;-73
2021/08/24 19:45:21;;;;;;;;;10.25;10.25;;;;;;;;6303613;22;45252;-73
2021/08/24 19:47:46;;;;;;;;;10.50;9.25;;;;;;;;6303547;22;46190;-76
2021/08/24 19:50:12;;;;;;;;;11.00;11.00;;;;;;;;6303517;22;45293;-74
2021/08/24 19:52:37;;;;;;;;;11.00;11.00;;;;;;;;6303639;22;45252;-77
2021/08/24 19:55:04;;;;;;;;;14.50;10.75;;;;;;;;6303940;22;45360;-76
2021/08/24 19:57:29;;;;;;;;;13.00;12.00;;;;;;;;6302883;22;46279;-75
2021/08/24 19:59:55;;;;;;;;;10.50;10.25;;;;;;;;6303451;22;45315;-74
2021/08/24 20:02:20;;;;;;;;;11.25;9.25;;;;;;;;6303486;22;45641;-75
2021/08/24 20:04:45;;;;;;;;;10.75;9.75;;;;;;;;6304753;22;45428;-71
2021/08/24 20:07:11;;;;;;;;;7.50;7.50;;;;;;;;6302382;22;46168;-72
2021/08/24 20:09:36;;;;;;;;;11.50;11.00;;;;;;;;6303483;22;45257;-72
2021/08/24 20:12:01;;;;;;;;;10.25;10.25;;;;;;;;6302457;22;45196;-72
2021/08/24 20:14:26;;;;;;;;;12.25;12.25;;;;;;;;6303645;22;45244;-72
2021/08/24 20:16:51;;;;;;;;;13.00;12.00;;;;;;;;6275360;22;48022;-72
2021/08/24 20:19:17;;;;;;;;;13.25;12.00;;;;;;;;6303666;22;45340;-72
2021/08/24 20:21:43;;;;;;;;;15.25;12.50;;;;;;;;6304156;22;45243;-72
2021/08/24 20:24:15;;;;;;;;;8.75;8.75;;;;;;;;6302412;22;45375;-73
2021/08/24 20:26:40;;;;;;;;;10.75;10.75;;;;;;;;6302819;22;46242;-72
2021/08/24 20:29:05;;;;;;;;;9.75;9.75;;;;;;;;6303383;22;45315;-73
2021/08/24 20:31:30;;;;;;;;;11.50;11.50;;;;;;;;6303648;22;45344;-75
2021/08/24 20:33:56;;;;;;;;;10.00;10.00;;;;;;;;6275268;22;45470;-69
2021/08/24 20:36:23;;;;;;;;;10.50;10.50;;;;;;;;6303534;22;46532;-72
2021/08/24 20:38:48;;;;;;;;;13.50;12.50;;;;;;;;6303117;22;45755;-71
2021/08/24 20:41:14;;;;;;;;;11.00;9.00;;;;;;;;6302578;22;45422;-74
2021/08/24 20:43:39;;;;;;;;;11.00;11.00;;;;;;;;6303512;22;45252;-73
2021/08/24 20:46:06;;;;;;;;;12.50;9.75;;;;;;;;6303176;22;45393;-73
2021/08/24 20:48:32;;;;;;;;;13.00;11.25;;;;;;;;6303092;22;45557;-72
2021/08/24 20:50:57;;;;;;;;;15.50;12.25;;;;;;;;6303332;22;45305;-72
2021/08/24 20:53:22;;;;;;;;;10.25;10.00;;;;;;;;6274985;22;45269;-72
2021/08/24 20:55:49;;;;;;;;;10.25;10.25;;;;;;;;6303315;22;45316;-72
2021/08/24 20:58:14;;;;;;;;;9.75;9.75;;;;;;;;6303038;22;45253;-73
2021/08/24 21:00:40;;;;;;;;;14.50;11.75;;;;;;;;6303946;22;45312;-72
2021/08/24 21:03:06;;;;;;;;;8.00;8.00;;;;;;;;6303205;22;45395;-72
2021/08/24 21:05:33;;;;;;;;;12.25;10.00;;;;;;;;6303513;22;45213;-69